Time;durP1;ratioP1;P1;durP2;ratioP2;P2;SDS_P1;SDS_P2;PMS_P1;PMS_P2;Temp;Humidity;BMP_temperature;BMP_pressure;BME280_temperature;BME280_humidity;BME280_pressure;Samples;Min_cycle;Max_cycle;Signal;HPM_P1;HPM_P2
2022/06/26 00:01:59;;;;;;;8.30;7.47;;;22.40;99.90;;;;;;5035692;28;20064;-73
2022/06/26 00:04:24;;;;;;;9.55;7.47;;;22.40;99.90;;;;;;5032196;28;20025;-73
2022/06/26 00:06:50;;;;;;;8.35;7.50;;;22.30;99.90;;;;;;5034998;28;20083;-73
2022/06/26 00:09:17;;;;;;;8.68;7.40;;;22.30;99.90;;;;;;5009986;28;20048;-73
2022/06/26 00:11:44;;;;;;;8.23;7.43;;;22.30;99.90;;;;;;5022533;28;20030;-73
2022/06/26 00:14:09;;;;;;;8.32;7.28;;;22.30;99.90;;;;;;5025654;28;20025;-73
2022/06/26 00:16:35;;;;;;;7.75;7.05;;;22.30;99.90;;;;;;5022153;28;20082;-73
2022/06/26 00:19:01;;;;;;;7.72;7.03;;;22.30;99.90;;;;;;5032364;28;20112;-73
2022/06/26 00:21:26;;;;;;;8.60;7.65;;;22.30;99.90;;;;;;5033298;28;20029;-73
2022/06/26 00:23:53;;;;;;;8.38;7.57;;;22.30;99.90;;;;;;5033771;28;20035;-73
2022/06/26 00:26:20;;;;;;;9.27;7.68;;;22.30;99.90;;;;;;5033819;28;20049;-73
2022/06/26 00:28:45;;;;;;;8.07;7.28;;;22.30;99.90;;;;;;5031345;28;20029;-73
2022/06/26 00:31:11;;;;;;;8.45;7.65;;;22.30;99.90;;;;;;5033030;28;20040;-73
2022/06/26 00:33:37;;;;;;;9.35;7.65;;;22.30;99.90;;;;;;5030164;28;20174;-73
2022/06/26 00:36:03;;;;;;;7.95;7.25;;;22.30;99.90;;;;;;5032942;28;20044;-74
2022/06/26 00:38:28;;;;;;;8.85;7.80;;;22.20;99.90;;;;;;5026847;28;20489;-72
2022/06/26 00:40:54;;;;;;;8.15;7.40;;;22.20;99.90;;;;;;5016495;28;20048;-73
2022/06/26 00:43:20;;;;;;;8.13;7.13;;;22.20;99.90;;;;;;5033722;28;20032;-72
2022/06/26 00:45:45;;;;;;;8.10;7.30;;;22.20;99.90;;;;;;5032931;28;20043;-72
2022/06/26 00:48:11;;;;;;;9.55;7.57;;;22.20;99.90;;;;;;5031891;28;20025;-73
2022/06/26 00:50:37;;;;;;;9.68;7.78;;;22.20;99.90;;;;;;5029837;28;20057;-72
2022/06/26 00:53:04;;;;;;;9.13;7.30;;;22.20;99.90;;;;;;5032850;28;20088;-73
2022/06/26 00:55:30;;;;;;;10.45;7.22;;;22.10;99.90;;;;;;5034193;28;20114;-73
2022/06/26 00:57:57;;;;;;;9.73;7.18;;;22.10;99.90;;;;;;5031427;28;20114;-73
2022/06/26 01:00:23;;;;;;;7.68;6.90;;;22.00;99.90;;;;;;5029254;28;20021;-73
2022/06/26 01:02:48;;;;;;;8.95;7.28;;;22.10;99.90;;;;;;5033881;28;20404;-72
2022/06/26 01:05:14;;;;;;;8.10;7.30;;;22.10;99.90;;;;;;5031875;28;20044;-72
2022/06/26 01:07:40;;;;;;;8.00;7.20;;;22.10;99.90;;;;;;5030743;28;20028;-73
2022/06/26 01:10:06;;;;;;;9.35;7.40;;;22.10;99.90;;;;;;5027389;28;20536;-73
2022/06/26 01:12:33;;;;;;;10.52;7.57;;;22.10;99.90;;;;;;5026922;28;20037;-73
2022/06/26 01:15:00;;;;;;;8.48;7.57;;;22.00;99.90;;;;;;5033787;28;20029;-73
2022/06/26 01:17:26;;;;;;;8.00;7.20;;;22.10;99.90;;;;;;5031145;28;20116;-73
2022/06/26 01:19:54;;;;;;;8.00;7.30;;;22.10;99.90;;;;;;5028535;28;20029;-73
2022/06/26 01:22:19;;;;;;;8.50;7.20;;;22.10;99.90;;;;;;5036301;28;20033;-73
2022/06/26 01:24:46;;;;;;;7.55;6.82;;;22.10;99.90;;;;;;5032825;28;20052;-73
2022/06/26 01:27:12;;;;;;;7.45;6.75;;;22.20;99.90;;;;;;5029653;28;20445;-73
2022/06/26 01:29:38;;;;;;;8.15;7.28;;;22.20;99.90;;;;;;5031818;28;20032;-73
2022/06/26 01:32:04;;;;;;;8.68;7.80;;;22.20;99.90;;;;;;5031830;28;20132;-73
2022/06/26 01:34:30;;;;;;;7.88;7.07;;;22.20;99.90;;;;;;5029923;28;20029;-73
2022/06/26 01:36:58;;;;;;;8.38;7.57;;;22.20;99.90;;;;;;5033640;28;20033;-73
2022/06/26 01:39:24;;;;;;;8.63;7.72;;;22.20;99.90;;;;;;5029937;28;20041;-74
2022/06/26 01:41:50;;;;;;;7.40;6.70;;;22.10;99.90;;;;;;5033073;28;20080;-73
2022/06/26 01:44:16;;;;;;;7.82;7.03;;;22.20;99.90;;;;;;5031705;28;20033;-73
2022/06/26 01:46:42;;;;;;;8.43;7.60;;;22.20;99.90;;;;;;5032500;28;20031;-74
2022/06/26 01:49:08;;;;;;;8.27;7.38;;;22.10;99.90;;;;;;5030277;28;20041;-73
2022/06/26 01:51:34;;;;;;;9.75;7.13;;;22.10;99.90;;;;;;5027933;28;20033;-73
2022/06/26 01:53:59;;;;;;;9.50;7.47;;;22.10;99.90;;;;;;5032085;28;20116;-73
2022/06/26 01:56:25;;;;;;;9.25;7.72;;;22.10;99.90;;;;;;5029833;28;20023;-73
2022/06/26 01:58:51;;;;;;;11.00;8.32;;;22.10;99.90;;;;;;5030834;28;20080;-73
2022/06/26 02:01:17;;;;;;;8.88;7.97;;;22.10;99.90;;;;;;5032493;28;20037;-73
2022/06/26 02:03:43;;;;;;;9.02;7.57;;;22.10;99.90;;;;;;5029251;28;20040;-73
2022/06/26 02:06:10;;;;;;;10.23;7.82;;;22.10;99.90;;;;;;5027270;28;20025;-73
2022/06/26 02:08:36;;;;;;;8.48;7.68;;;22.10;99.90;;;;;;5035147;28;20166;-73
2022/06/26 02:13:47;;;;;;;11.18;7.75;;;22.10;99.90;;;;;;5029573;28;20042;-73
2022/06/26 02:16:21;;;;;;;8.60;7.80;;;22.10;99.90;;;;;;5026923;28;20033;-73
2022/06/26 02:18:52;;;;;;;8.88;7.97;;;22.10;99.90;;;;;;5024105;28;20039;-73
2022/06/26 02:21:21;;;;;;;8.50;7.10;;;22.10;99.90;;;;;;5030969;28;20481;-72
2022/06/26 02:23:49;;;;;;;8.82;7.93;;;22.00;99.90;;;;;;5029971;28;20075;-73
2022/06/26 02:26:16;;;;;;;10.02;8.10;;;22.00;99.90;;;;;;5009414;28;20030;-73
2022/06/26 02:28:42;;;;;;;8.55;6.95;;;22.00;99.90;;;;;;5028365;28;20091;-73
2022/06/26 02:31:08;;;;;;;8.75;7.75;;;22.00;99.90;;;;;;5023808;28;20033;-73
2022/06/26 02:33:35;;;;;;;7.90;7.10;;;22.00;99.90;;;;;;5028894;28;20037;-73
2022/06/26 02:36:05;;;;;;;8.70;7.80;;;22.00;99.90;;;;;;5031557;28;20017;-73
2022/06/26 02:38:31;;;;;;;8.30;7.50;;;22.00;99.90;;;;;;5029609;28;20604;-73
2022/06/26 02:40:57;;;;;;;9.80;7.50;;;22.00;99.90;;;;;;5027672;28;20091;-73
2022/06/26 02:43:23;;;;;;;9.85;8.68;;;21.90;99.90;;;;;;5030019;28;20037;-74
2022/06/26 02:45:50;;;;;;;8.70;7.43;;;21.90;99.90;;;;;;5011532;28;20114;-73
2022/06/26 02:48:16;;;;;;;8.77;7.97;;;21.90;99.90;;;;;;5006456;28;20033;-73
2022/06/26 02:50:42;;;;;;;8.95;8.05;;;21.90;99.90;;;;;;5032943;28;20040;-73
2022/06/26 02:53:08;;;;;;;10.27;8.32;;;21.90;99.90;;;;;;5033286;28;20761;-74
2022/06/26 02:55:34;;;;;;;9.35;7.85;;;21.90;99.90;;;;;;5031320;28;20037;-73
2022/06/26 02:58:00;;;;;;;9.82;8.77;;;21.80;99.90;;;;;;5025798;28;20033;-73
2022/06/26 03:00:25;;;;;;;10.40;7.82;;;21.80;99.90;;;;;;5031840;28;20040;-73
2022/06/26 03:02:51;;;;;;;11.18;8.38;;;21.80;99.90;;;;;;5032281;28;20028;-73
2022/06/26 03:05:17;;;;;;;12.70;8.95;;;21.80;99.90;;;;;;5031740;28;20081;-73
2022/06/26 03:07:43;;;;;;;8.55;7.50;;;21.80;99.90;;;;;;5033220;28;20041;-73
2022/06/26 03:10:09;;;;;;;9.32;8.43;;;21.80;99.90;;;;;;5030270;28;20037;-73
2022/06/26 03:12:43;;;;;;;8.80;7.63;;;21.80;99.90;;;;;;5031830;28;20768;-73
2022/06/26 03:15:08;;;;;;;10.60;8.65;;;21.80;99.90;;;;;;5030139;28;20028;-73
2022/06/26 03:17:34;;;;;;;9.65;8.68;;;21.70;99.90;;;;;;5030448;28;20029;-73
2022/06/26 03:20:00;;;;;;;8.43;7.57;;;21.70;99.90;;;;;;5026577;28;20425;-73
2022/06/26 03:22:25;;;;;;;9.85;8.85;;;21.70;99.90;;;;;;5029744;28;20631;-74
2022/06/26 03:24:51;;;;;;;9.98;8.98;;;21.70;99.90;;;;;;5029318;28;20045;-72
2022/06/26 03:27:17;;;;;;;11.88;8.93;;;21.70;99.90;;;;;;5028708;28;20128;-72
2022/06/26 03:29:42;;;;;;;10.52;9.07;;;21.70;99.90;;;;;;5009610;28;20065;-72
2022/06/26 03:32:08;;;;;;;12.18;8.45;;;21.70;99.90;;;;;;5026902;28;20078;-72
2022/06/26 03:34:34;;;;;;;10.70;9.10;;;21.70;99.90;;;;;;5030790;28;20041;-72
2022/06/26 03:37:00;;;;;;;8.57;7.75;;;21.60;99.90;;;;;;5028511;28;20065;-73
2022/06/26 03:39:26;;;;;;;8.73;7.82;;;21.60;99.90;;;;;;5028574;28;20029;-73
2022/06/26 03:42:00;;;;;;;9.63;8.63;;;21.60;99.90;;;;;;5027471;28;20026;-73
2022/06/26 03:44:29;;;;;;;10.85;8.63;;;21.60;99.90;;;;;;5027585;28;20018;-73
2022/06/26 03:46:55;;;;;;;9.40;8.40;;;21.60;99.90;;;;;;5026705;28;20026;-73
2022/06/26 03:49:22;;;;;;;8.65;7.80;;;21.50;99.90;;;;;;5028965;28;20532;-72
2022/06/26 03:51:48;;;;;;;10.15;8.88;;;21.60;99.90;;;;;;5029068;28;20033;-72
2022/06/26 03:54:14;;;;;;;9.63;8.63;;;21.60;99.90;;;;;;5030374;28;20037;-72
2022/06/26 03:56:40;;;;;;;8.93;7.55;;;21.60;99.90;;;;;;5029765;28;20031;-73
2022/06/26 03:59:06;;;;;;;9.10;8.20;;;21.50;99.90;;;;;;5029090;28;20056;-72
2022/06/26 04:01:31;;;;;;;8.93;8.02;;;21.60;99.90;;;;;;5026641;28;20083;-72
2022/06/26 04:03:58;;;;;;;8.75;7.95;;;21.60;99.90;;;;;;5024616;28;20088;-73
2022/06/26 04:06:24;;;;;;;8.98;8.05;;;21.60;99.90;;;;;;5031401;28;20412;-73
2022/06/26 04:08:49;;;;;;;9.02;8.15;;;21.60;99.90;;;;;;5030932;28;20036;-72
2022/06/26 04:11:15;;;;;;;10.75;7.78;;;21.60;99.90;;;;;;5031289;28;20033;-73
2022/06/26 04:13:42;;;;;;;9.55;8.38;;;21.60;99.90;;;;;;5030911;28;20048;-72
2022/06/26 04:16:08;;;;;;;10.00;7.88;;;21.60;99.90;;;;;;5030223;28;20512;-72
2022/06/26 04:18:34;;;;;;;8.88;8.02;;;21.70;99.90;;;;;;5031403;28;20039;-73
2022/06/26 04:21:01;;;;;;;9.60;8.70;;;21.60;99.90;;;;;;5030675;28;20493;-73
2022/06/26 04:23:27;;;;;;;10.20;9.05;;;21.70;99.90;;;;;;5030492;28;20175;-73
2022/06/26 04:25:53;;;;;;;11.00;8.63;;;21.70;99.90;;;;;;5032739;28;20020;-74
2022/06/26 04:28:19;;;;;;;8.80;7.90;;;21.70;99.90;;;;;;5029265;28;20034;-73
2022/06/26 04:30:44;;;;;;;10.15;8.60;;;21.60;99.90;;;;;;5032900;28;20048;-72
2022/06/26 04:33:10;;;;;;;10.52;9.60;;;21.60;99.90;;;;;;5028905;28;20045;-73
2022/06/26 04:35:36;;;;;;;10.18;9.10;;;21.60;99.90;;;;;;5030382;28;20029;-72
2022/06/26 04:38:02;;;;;;;10.38;9.27;;;21.50;99.90;;;;;;5030793;28;20025;-73
2022/06/26 04:40:29;;;;;;;10.60;9.60;;;21.50;99.90;;;;;;5026698;28;20034;-73
2022/06/26 04:42:55;;;;;;;10.23;9.13;;;21.50;99.90;;;;;;5027606;28;20086;-73
2022/06/26 04:45:21;;;;;;;9.35;8.50;;;21.50;99.90;;;;;;5029613;28;20041;-73
2022/06/26 04:47:47;;;;;;;10.07;9.02;;;21.50;99.90;;;;;;5031913;28;20037;-73
2022/06/26 04:50:15;;;;;;;10.73;9.63;;;21.60;99.90;;;;;;5029754;28;20034;-73
2022/06/26 04:52:48;;;;;;;10.95;9.07;;;21.60;99.90;;;;;;5034314;28;20043;-73
2022/06/26 04:55:14;;;;;;;10.82;9.75;;;21.60;99.90;;;;;;5028977;28;20048;-72
2022/06/26 04:57:40;;;;;;;10.88;9.55;;;21.60;99.90;;;;;;5032198;28;20032;-73
2022/06/26 05:00:11;;;;;;;10.15;9.15;;;21.60;99.90;;;;;;5031574;28;20484;-73
2022/06/26 05:02:37;;;;;;;10.00;8.77;;;21.70;99.90;;;;;;5031517;28;20565;-73
2022/06/26 05:05:04;;;;;;;10.05;9.15;;;21.70;99.90;;;;;;5028576;28;20053;-73
2022/06/26 05:07:30;;;;;;;10.43;9.30;;;21.70;99.90;;;;;;5030935;28;20048;-73
2022/06/26 05:09:56;;;;;;;11.07;10.05;;;21.80;99.90;;;;;;5034852;28;20409;-73
2022/06/26 05:12:22;;;;;;;10.10;9.15;;;21.80;99.90;;;;;;5031724;28;20067;-73
2022/06/26 05:14:47;;;;;;;10.50;8.93;;;21.80;99.90;;;;;;5047786;28;20789;-73
2022/06/26 05:17:13;;;;;;;9.18;8.35;;;21.80;99.90;;;;;;5033459;28;20698;-72
2022/06/26 05:19:39;;;;;;;9.65;8.65;;;21.90;99.90;;;;;;5026806;28;20060;-73
2022/06/26 05:22:05;;;;;;;8.77;7.97;;;21.90;99.90;;;;;;5033041;28;20017;-73
2022/06/26 05:24:32;;;;;;;8.98;8.07;;;22.00;99.90;;;;;;5030219;28;20021;-73
2022/06/26 05:26:58;;;;;;;9.25;8.40;;;22.10;99.90;;;;;;5034114;28;20136;-74
2022/06/26 05:29:27;;;;;;;8.38;7.57;;;22.20;99.90;;;;;;5024808;28;21007;-73
2022/06/26 05:31:53;;;;;;;10.48;8.00;;;22.20;99.90;;;;;;5031769;28;20080;-73
2022/06/26 05:34:19;;;;;;;8.23;7.43;;;22.30;99.90;;;;;;5031460;28;20041;-72
2022/06/26 05:36:45;;;;;;;8.30;7.32;;;22.40;99.90;;;;;;5027316;28;20025;-72
2022/06/26 05:39:11;;;;;;;7.88;7.15;;;22.50;99.90;;;;;;5024274;28;20032;-73
2022/06/26 05:41:37;;;;;;;8.65;6.97;;;22.60;99.90;;;;;;5029475;28;20038;-73
2022/06/26 05:44:03;;;;;;;9.25;7.38;;;22.70;99.90;;;;;;5034045;28;20061;-73
2022/06/26 05:46:28;;;;;;;8.80;6.68;;;22.70;99.90;;;;;;5029494;28;20031;-73
2022/06/26 05:48:54;;;;;;;7.78;6.53;;;22.70;99.90;;;;;;5028887;28;20402;-73
2022/06/26 05:51:20;;;;;;;7.97;6.85;;;22.80;99.90;;;;;;5030134;28;20036;-74
2022/06/26 05:53:46;;;;;;;6.95;6.25;;;22.90;99.90;;;;;;5022772;28;20033;-72
2022/06/26 05:56:11;;;;;;;6.85;6.00;;;23.00;99.90;;;;;;5030091;28;20028;-73
2022/06/26 05:58:37;;;;;;;7.00;6.30;;;23.10;99.90;;;;;;5028615;28;20485;-73
2022/06/26 06:01:03;;;;;;;7.68;6.28;;;23.20;99.90;;;;;;5028994;28;20055;-72
2022/06/26 06:03:30;;;;;;;6.95;6.32;;;23.20;99.90;;;;;;5032174;28;20035;-73
2022/06/26 06:05:56;;;;;;;7.85;6.20;;;23.20;99.90;;;;;;5032156;28;20404;-73
2022/06/26 06:08:22;;;;;;;7.20;6.55;;;23.10;99.90;;;;;;5028698;28;20025;-73
2022/06/26 06:10:49;;;;;;;6.68;6.00;;;23.10;99.90;;;;;;5030986;28;20087;-72
2022/06/26 06:13:17;;;;;;;7.93;6.18;;;23.00;99.90;;;;;;5031137;28;20458;-71
2022/06/26 06:15:43;;;;;;;6.03;5.43;;;22.90;99.90;;;;;;5034257;28;20026;-72
2022/06/26 06:18:10;;;;;;;6.60;6.00;;;22.90;99.90;;;;;;5028003;28;20033;-73
2022/06/26 06:20:36;;;;;;;6.72;6.05;;;22.80;99.90;;;;;;5030392;28;20296;-73
2022/06/26 06:23:04;;;;;;;6.85;6.13;;;22.80;99.90;;;;;;5027737;28;20029;-73
2022/06/26 06:25:30;;;;;;;8.05;6.00;;;22.80;99.90;;;;;;5032276;28;20033;-73
2022/06/26 06:27:57;;;;;;;6.40;5.72;;;22.80;99.90;;;;;;5029918;28;20089;-73
2022/06/26 06:30:23;;;;;;;7.28;6.57;;;22.90;99.90;;;;;;5027604;28;20037;-73
2022/06/26 06:32:49;;;;;;;8.65;6.65;;;22.90;99.90;;;;;;5030517;28;20507;-73
2022/06/26 06:35:15;;;;;;;8.85;6.60;;;22.90;99.90;;;;;;5024319;28;20025;-73
2022/06/26 06:37:43;;;;;;;6.85;6.18;;;23.00;99.90;;;;;;5029913;28;20104;-73
2022/06/26 06:40:10;;;;;;;7.38;6.68;;;23.10;99.90;;;;;;5026470;28;20100;-73
2022/06/26 06:42:36;;;;;;;8.88;6.40;;;23.20;99.90;;;;;;5030488;28;20030;-74
2022/06/26 06:45:03;;;;;;;9.07;6.60;;;23.30;99.90;;;;;;5028534;28;20088;-74
2022/06/26 06:47:29;;;;;;;9.32;6.43;;;23.40;99.90;;;;;;5033355;28;20105;-73
2022/06/26 06:49:54;;;;;;;7.13;6.38;;;23.50;99.90;;;;;;5031306;28;20035;-74
2022/06/26 06:52:20;;;;;;;7.13;6.43;;;23.50;99.90;;;;;;5029565;28;20115;-73
2022/06/26 06:54:46;;;;;;;7.35;6.65;;;23.50;99.90;;;;;;5030465;28;20037;-74
2022/06/26 06:57:11;;;;;;;7.90;6.82;;;23.60;99.90;;;;;;5028448;28;20048;-74
2022/06/26 06:59:37;;;;;;;8.75;6.50;;;23.60;99.90;;;;;;5012403;28;20033;-74
2022/06/26 07:02:03;;;;;;;8.00;7.25;;;23.60;99.90;;;;;;5029715;28;20696;-73
2022/06/26 07:04:29;;;;;;;7.07;6.40;;;23.70;99.90;;;;;;5032763;28;20021;-74
2022/06/26 07:06:55;;;;;;;7.35;6.70;;;23.70;99.90;;;;;;5029512;28;20078;-74
2022/06/26 07:09:21;;;;;;;7.07;6.38;;;23.80;99.90;;;;;;5029149;28;20835;-73
2022/06/26 07:11:47;;;;;;;9.90;7.85;;;23.80;99.90;;;;;;5028276;28;20040;-73
2022/06/26 07:14:12;;;;;;;11.50;7.05;;;23.80;99.90;;;;;;5025658;28;21119;-74
2022/06/26 07:16:38;;;;;;;7.85;7.00;;;23.90;99.90;;;;;;5031949;28;20040;-74
2022/06/26 07:19:04;;;;;;;8.70;6.47;;;23.90;99.90;;;;;;5022644;28;20033;-72
2022/06/26 07:21:30;;;;;;;7.95;7.15;;;24.00;99.90;;;;;;5029009;28;20104;-73
2022/06/26 07:23:56;;;;;;;7.10;6.40;;;24.10;99.90;;;;;;5031820;28;20040;-74
2022/06/26 07:26:22;;;;;;;7.45;6.35;;;24.20;99.90;;;;;;5030372;28;20072;-74
2022/06/26 07:28:47;;;;;;;7.72;6.70;;;24.30;99.90;;;;;;5027989;28;20029;-74
2022/06/26 07:31:13;;;;;;;7.60;6.43;;;24.40;99.90;;;;;;5030404;28;20048;-74
2022/06/26 07:36:23;;;;;;;8.15;7.25;;;24.60;99.90;;;;;;5024491;28;20459;-75
2022/06/26 07:38:49;;;;;;;7.38;6.28;;;24.70;99.90;;;;;;5029621;28;20025;-74
2022/06/26 07:41:15;;;;;;;6.05;5.45;;;24.80;99.90;;;;;;5027214;28;20034;-74
2022/06/26 07:43:41;;;;;;;6.75;5.35;;;24.80;99.90;;;;;;5022923;28;20041;-74
2022/06/26 07:46:07;;;;;;;7.32;5.85;;;25.00;99.90;;;;;;5025706;28;20029;-74
2022/06/26 07:48:33;;;;;;;6.57;5.97;;;25.10;99.90;;;;;;5031639;28;20036;-74
2022/06/26 07:51:02;;;;;;;6.90;6.13;;;25.10;99.90;;;;;;5030016;28;20838;-74
2022/06/26 07:53:28;;;;;;;7.25;6.55;;;25.20;99.90;;;;;;5029240;28;20025;-73
2022/06/26 07:55:54;;;;;;;6.88;6.05;;;25.30;99.90;;;;;;5020978;28;20034;-76
2022/06/26 07:58:20;;;;;;;7.43;6.72;;;25.30;99.90;;;;;;5025174;28;20607;-73
2022/06/26 08:00:46;;;;;;;8.10;7.30;;;25.40;99.90;;;;;;5028598;28;20076;-75
2022/06/26 08:03:14;;;;;;;6.60;5.90;;;25.50;99.90;;;;;;5023762;28;20026;-74
2022/06/26 08:05:40;;;;;;;6.45;5.80;;;25.60;99.90;;;;;;5021792;28;20033;-73
2022/06/26 08:08:07;;;;;;;6.68;5.45;;;25.70;99.90;;;;;;5025410;28;20464;-74
2022/06/26 08:10:36;;;;;;;6.57;5.18;;;25.80;99.90;;;;;;5030266;28;20021;-76
2022/06/26 08:13:04;;;;;;;5.75;4.55;;;25.90;99.90;;;;;;5030210;28;20041;-74
2022/06/26 08:15:30;;;;;;;5.75;4.20;;;25.90;99.90;;;;;;5026535;28;20637;-74
2022/06/26 08:17:55;;;;;;;5.22;3.83;;;25.80;99.40;;;;;;5029019;28;20033;-76
2022/06/26 08:20:22;;;;;;;5.75;3.45;;;25.80;99.80;;;;;;5031625;28;20025;-74
2022/06/26 08:22:47;;;;;;;4.00;3.00;;;25.70;98.50;;;;;;5028619;28;20055;-74
2022/06/26 08:25:13;;;;;;;3.35;3.05;;;25.70;98.50;;;;;;5033685;28;20550;-75
2022/06/26 08:27:39;;;;;;;3.20;2.60;;;25.70;97.80;;;;;;5033677;28;20104;-74
2022/06/26 08:30:06;;;;;;;2.78;2.58;;;25.70;96.60;;;;;;5037049;28;20454;-74
2022/06/26 08:32:32;;;;;;;2.70;2.50;;;25.70;97.10;;;;;;5033378;28;20125;-75
2022/06/26 08:34:59;;;;;;;4.53;2.70;;;25.70;95.50;;;;;;5025834;28;20040;-76
2022/06/26 08:37:24;;;;;;;3.47;2.60;;;25.80;96.50;;;;;;5034960;28;20060;-76
2022/06/26 08:39:51;;;;;;;3.90;2.85;;;25.90;96.90;;;;;;5030975;28;20252;-72
2022/06/26 08:42:19;;;;;;;4.15;2.78;;;25.90;96.40;;;;;;5028128;28;20033;-75
2022/06/26 08:44:46;;;;;;;6.82;3.28;;;26.00;96.40;;;;;;5033937;28;20051;-76
2022/06/26 08:47:13;;;;;;;3.10;2.80;;;26.10;96.00;;;;;;5032079;28;20382;-77
2022/06/26 08:49:40;;;;;;;3.13;2.67;;;26.20;96.40;;;;;;5040734;28;20056;-75
2022/06/26 08:52:09;;;;;;;3.38;2.72;;;26.00;96.70;;;;;;5034718;28;20035;-74
2022/06/26 08:54:36;;;;;;;3.33;3.03;;;26.10;96.30;;;;;;5027500;28;20379;-75
2022/06/26 08:57:01;;;;;;;3.42;2.55;;;26.10;96.00;;;;;;5025940;28;20021;-73
2022/06/26 08:59:29;;;;;;;4.30;2.75;;;26.10;96.10;;;;;;5029981;28;20061;-77
2022/06/26 09:01:55;;;;;;;2.97;2.67;;;26.10;95.30;;;;;;5036686;28;20056;-75
2022/06/26 09:04:21;;;;;;;4.03;3.05;;;26.10;95.60;;;;;;5035486;28;20033;-74
2022/06/26 09:06:46;;;;;;;2.97;2.67;;;26.20;95.80;;;;;;5027534;28;20037;-77
2022/06/26 09:09:24;;;;;;;2.75;2.50;;;26.20;95.80;;;;;;5029513;28;20136;-76
2022/06/26 09:11:52;;;;;;;3.63;3.17;;;26.30;95.90;;;;;;5022492;28;20075;-74
2022/06/26 09:14:19;;;;;;;5.55;2.88;;;26.30;95.20;;;;;;5027858;28;20034;-76
2022/06/26 09:16:47;;;;;;;4.30;2.92;;;26.40;95.10;;;;;;5011172;28;20041;-75
2022/06/26 09:19:16;;;;;;;3.10;2.80;;;26.30;95.10;;;;;;5029946;28;20102;-74
2022/06/26 09:21:43;;;;;;;2.80;2.60;;;26.40;95.10;;;;;;5030166;28;20029;-75
2022/06/26 09:24:13;;;;;;;3.00;2.70;;;26.50;95.50;;;;;;5028548;28;20108;-75
2022/06/26 09:26:43;;;;;;;9.13;2.85;;;26.40;95.10;;;;;;5031362;28;20115;-76
2022/06/26 09:29:14;;;;;;;4.97;3.28;;;26.50;94.80;;;;;;5031426;28;20412;-77
2022/06/26 09:31:40;;;;;;;3.50;3.20;;;26.40;95.50;;;;;;5028019;28;20088;-76
2022/06/26 09:34:07;;;;;;;6.70;3.22;;;26.40;96.10;;;;;;5024343;28;20044;-75
2022/06/26 09:36:33;;;;;;;3.70;3.08;;;26.40;95.70;;;;;;5030195;28;20029;-75
2022/06/26 09:38:59;;;;;;;3.30;2.92;;;26.40;96.30;;;;;;5028818;28;20036;-77
2022/06/26 09:41:33;;;;;;;6.35;3.50;;;26.50;95.90;;;;;;5036147;28;20030;-78
2022/06/26 09:43:59;;;;;;;3.28;2.90;;;26.60;95.90;;;;;;5032860;28;20033;-75
2022/06/26 09:46:32;;;;;;;4.85;3.10;;;26.70;95.80;;;;;;5031404;28;20052;-76
2022/06/26 09:49:00;;;;;;;4.13;2.95;;;26.90;95.50;;;;;;5039923;28;20029;-76
2022/06/26 09:51:26;;;;;;;4.38;3.28;;;26.90;95.30;;;;;;5033023;28;20032;-76
2022/06/26 09:53:53;;;;;;;3.47;3.08;;;27.10;95.10;;;;;;5029156;28;20509;-73
2022/06/26 09:56:19;;;;;;;4.50;2.90;;;27.10;94.10;;;;;;5027800;28;20406;-76
2022/06/26 09:58:45;;;;;;;4.13;2.92;;;27.20;93.80;;;;;;5034036;28;20124;-74
2022/06/26 10:06:44;;;;;;;3.95;3.30;;;27.20;94.40;;;;;;5030457;28;20417;-74
2022/06/26 10:09:10;;;;;;;4.85;3.25;;;27.40;94.20;;;;;;5015830;28;20405;-73
2022/06/26 10:11:41;;;;;;;4.15;3.50;;;27.30;94.20;;;;;;5022557;28;20045;-74
2022/06/26 10:14:21;;;;;;;5.45;3.17;;;27.20;93.50;;;;;;5021591;28;20029;-72
2022/06/26 10:17:03;;;;;;;4.20;2.83;;;27.20;93.30;;;;;;5017064;28;20034;-77
2022/06/26 10:19:46;;;;;;;4.70;3.00;;;27.20;93.10;;;;;;5031610;28;20029;-76
2022/06/26 10:22:13;;;;;;;4.18;3.60;;;27.10;93.00;;;;;;5027601;28;20026;-76
2022/06/26 10:24:53;;;;;;;4.63;3.10;;;27.10;93.50;;;;;;5020781;28;20059;-76
2022/06/26 10:27:33;;;;;;;4.15;3.08;;;27.20;93.20;;;;;;5030169;28;20061;-77
2022/06/26 10:30:18;;;;;;;5.20;2.77;;;27.20;93.30;;;;;;5030755;28;20135;-77
2022/06/26 10:32:44;;;;;;;3.65;2.50;;;27.30;92.80;;;;;;5028550;28;20331;-77
2022/06/26 10:35:13;;;;;;;3.55;3.25;;;27.50;92.50;;;;;;5026501;28;20052;-75
2022/06/26 10:37:42;;;;;;;5.13;3.30;;;27.50;91.60;;;;;;5027089;28;20039;-76
2022/06/26 10:42:52;;;;;;;4.00;3.42;;;27.60;91.90;;;;;;5027488;28;20045;-75
2022/06/26 10:43:03;;;;;;;4.03;3.03;;;27.50;92.00;;;;;;5014905;28;20140;-74
2022/06/26 10:45:31;;;;;;;3.55;3.25;;;27.50;91.90;;;;;;5026146;28;20029;-75
2022/06/26 10:48:18;;;;;;;5.70;3.60;;;27.60;93.10;;;;;;5027664;28;20038;-73
2022/06/26 10:50:45;;;;;;;4.57;3.63;;;27.70;92.30;;;;;;5025000;28;20758;-73
2022/06/26 10:53:29;;;;;;;6.72;3.65;;;27.80;93.20;;;;;;5019070;28;20111;-77
2022/06/26 10:55:57;;;;;;;5.70;3.47;;;28.00;92.30;;;;;;5025795;28;20083;-78
2022/06/26 10:58:41;;;;;;;6.43;3.80;;;28.10;92.60;;;;;;5024614;28;20029;-77
2022/06/26 11:01:10;;;;;;;6.50;4.18;;;28.30;91.90;;;;;;5020981;28;20029;-75
2022/06/26 11:03:37;;;;;;;4.97;3.85;;;28.40;90.80;;;;;;5023268;28;20064;-75
2022/06/26 11:06:04;;;;;;;11.05;4.32;;;28.40;91.10;;;;;;5023151;28;20042;-77
2022/06/26 11:08:54;;;;;;;5.88;3.80;;;28.40;91.10;;;;;;5030267;28;20183;-75
2022/06/26 11:11:31;;;;;;;5.28;4.03;;;28.40;92.00;;;;;;5026632;28;20036;-71
2022/06/26 11:14:02;;;;;;;4.75;3.42;;;28.30;90.70;;;;;;5024838;28;20036;-74
2022/06/26 11:16:34;;;;;;;8.65;3.03;;;28.20;89.50;;;;;;5026773;28;20026;-75
2022/06/26 11:19:03;;;;;;;5.50;4.22;;;28.10;88.80;;;;;;5028285;28;20025;-75
2022/06/26 11:21:29;;;;;;;6.93;4.50;;;28.20;91.00;;;;;;5027328;28;20112;-75
2022/06/26 11:23:56;;;;;;;5.45;4.60;;;28.60;91.00;;;;;;5008767;28;20679;-76
2022/06/26 11:26:22;;;;;;;9.90;5.05;;;28.90;91.30;;;;;;5025702;28;20659;-74
2022/06/26 11:29:00;;;;;;;5.70;4.00;;;29.00;90.10;;;;;;5031191;28;20045;-76
2022/06/26 11:31:30;;;;;;;6.03;4.38;;;28.80;88.80;;;;;;5028040;28;20036;-75
2022/06/26 11:34:10;;;;;;;5.63;4.00;;;28.50;89.90;;;;;;5023221;28;20041;-75
2022/06/26 11:36:36;;;;;;;5.50;4.00;;;28.20;90.10;;;;;;5019373;28;20067;-76
2022/06/26 11:39:01;;;;;;;13.15;4.82;;;28.10;90.00;;;;;;5020460;28;20087;-75
2022/06/26 11:41:27;;;;;;;5.90;4.20;;;28.20;90.40;;;;;;5027959;28;20806;-75
2022/06/26 11:43:55;;;;;;;4.07;3.45;;;28.70;90.70;;;;;;5025419;28;20034;-77
2022/06/26 11:46:22;;;;;;;5.68;4.13;;;29.80;89.20;;;;;;5029133;28;20037;-75
2022/06/26 11:48:53;;;;;;;7.05;4.03;;;30.50;85.40;;;;;;5020889;28;20100;-76
2022/06/26 11:51:20;;;;;;;5.93;3.45;;;30.00;86.10;;;;;;5027253;28;20660;-77
2022/06/26 11:53:49;;;;;;;6.75;4.22;;;29.30;86.70;;;;;;5023719;28;20033;-76
2022/06/26 11:56:25;;;;;;;5.30;4.00;;;28.80;87.50;;;;;;5019498;28;20033;-78
2022/06/26 11:58:53;;;;;;;6.38;4.32;;;28.20;90.20;;;;;;5022067;28;20025;-74
2022/06/26 12:01:21;;;;;;;4.90;3.83;;;28.10;90.30;;;;;;5023836;28;20040;-75
2022/06/26 12:03:47;;;;;;;5.70;4.10;;;27.80;90.90;;;;;;5028218;28;20038;-76
2022/06/26 12:06:24;;;;;;;5.85;3.83;;;27.60;91.90;;;;;;5035108;28;20049;-74
2022/06/26 12:08:50;;;;;;;5.35;3.92;;;27.50;91.90;;;;;;5019127;28;20058;-74
2022/06/26 12:11:16;;;;;;;7.35;4.15;;;27.30;92.50;;;;;;5026949;28;20064;-75
2022/06/26 12:13:43;;;;;;;6.35;5.20;;;27.30;92.40;;;;;;5011805;28;20670;-76
2022/06/26 12:16:10;;;;;;;7.30;6.10;;;27.20;93.00;;;;;;5024873;28;20037;-73
2022/06/26 12:18:40;;;;;;;6.75;5.68;;;27.00;93.10;;;;;;5029170;28;20029;-77
2022/06/26 12:21:20;;;;;;;6.22;5.20;;;26.80;93.60;;;;;;5023756;28;20551;-76
2022/06/26 12:23:49;;;;;;;6.88;5.38;;;26.90;94.30;;;;;;5036794;28;20065;-76
2022/06/26 12:26:24;;;;;;;10.48;4.82;;;27.80;93.80;;;;;;5033580;28;20029;-76
2022/06/26 12:28:52;;;;;;;5.63;4.47;;;28.90;91.60;;;;;;5034599;28;20092;-75
2022/06/26 12:31:21;;;;;;;7.88;4.38;;;30.00;88.90;;;;;;5032760;28;20079;-77
2022/06/26 12:33:48;;;;;;;4.70;4.30;;;30.60;87.10;;;;;;5024075;28;20516;-76
2022/06/26 12:36:15;;;;;;;5.85;4.03;;;30.30;87.40;;;;;;5025828;28;20489;-77
2022/06/26 12:38:41;;;;;;;4.20;3.85;;;29.80;86.20;;;;;;5027090;28;20749;-77
2022/06/26 12:41:16;;;;;;;4.88;3.50;;;29.30;88.40;;;;;;5031356;28;20041;-76
2022/06/26 12:43:50;;;;;;;4.93;4.15;;;29.00;90.90;;;;;;5011446;28;20065;-76
2022/06/26 12:46:16;;;;;;;3.97;3.42;;;29.00;88.00;;;;;;5014752;28;20084;-77
2022/06/26 12:48:42;;;;;;;4.63;3.63;;;29.00;89.10;;;;;;5008008;28;20696;-76
2022/06/26 12:51:09;;;;;;;10.30;3.72;;;28.90;88.80;;;;;;5005299;28;20126;-76
2022/06/26 12:53:35;;;;;;;4.78;3.95;;;28.80;87.80;;;;;;5015715;28;20034;-75
2022/06/26 12:56:01;;;;;;;6.70;4.55;;;28.60;89.00;;;;;;5035148;28;20105;-76
2022/06/26 12:58:27;;;;;;;4.72;4.05;;;28.40;89.80;;;;;;5025323;28;20428;-76